Aumsville, Oregon
Current Conditions -  °F | °C
As of 9:56 PM on Monday 26 Jan 2015 (Local Time) from KSLE Reporting Station
Moderate Fog Moderate Fog  
Wind Chill: 46°   Ceiling: 200
Heat Index: 46°   Visibility: 0.25mi
Dew Point: 44°   Wind: 3mph
Humidity: 93%   Direction: 310°NW
Pressure: 29.99"   Gusts: NA
Location:  44.84°N, 122.87°W
Report Text: KSLE 270556Z AUTO 31003KT 1/4SM R31/1400FT FG VV002 08/07 A2999 RMK AO2 SLP157 T00780067 10100 20072 53008
Loading
Personal Weather Stations






























Interactive Weather Map New forecast layout! Learn more

10-Day Weather Forecast

Advertisements
Track Severe Weather on mobile